createdAt,value
2018-12-12T00:04:55.321Z,9.70
2018-12-12T00:11:00.088Z,9.57
2018-12-12T00:17:05.207Z,8.87
2018-12-12T00:23:10.004Z,9.80
2018-12-12T00:29:14.875Z,9.53
2018-12-12T00:35:19.636Z,8.97
2018-12-12T00:41:24.289Z,9.03
2018-12-12T00:47:28.993Z,9.80
2018-12-12T00:53:33.688Z,9.23
2018-12-12T00:59:38.666Z,9.30
2018-12-12T01:05:43.337Z,9.47
2018-12-12T01:11:53.514Z,9.40
2018-12-12T01:17:58.273Z,10.03
2018-12-12T01:24:03.057Z,10.63
2018-12-12T01:30:07.902Z,11.53
2018-12-12T01:36:12.563Z,10.37
2018-12-12T01:42:17.279Z,8.93
2018-12-12T01:48:21.938Z,9.40
2018-12-12T01:54:26.666Z,9.10
2018-12-12T02:00:31.368Z,7.93
2018-12-12T02:06:36.169Z,7.67
2018-12-12T02:12:41.144Z,8.67
2018-12-12T02:18:46.902Z,9.10
2018-12-12T02:24:51.565Z,7.60
2018-12-12T02:30:56.973Z,7.60
2018-12-12T02:37:02.504Z,8.10
2018-12-12T02:43:07.197Z,8.37
2018-12-12T02:49:11.932Z,7.83
2018-12-12T02:55:16.741Z,8.10
2018-12-12T03:01:21.434Z,7.97
2018-12-12T03:07:26.097Z,8.13
2018-12-12T03:13:30.817Z,8.60
2018-12-12T03:19:35.474Z,7.73
2018-12-12T03:25:40.241Z,8.40
2018-12-12T03:31:44.965Z,8.73
2018-12-12T03:37:49.607Z,7.80
2018-12-12T03:43:54.306Z,7.83
2018-12-12T03:49:58.966Z,7.77
2018-12-12T03:56:03.661Z,7.57
2018-12-12T04:02:08.344Z,8.13
2018-12-12T04:08:13.205Z,8.67
2018-12-12T04:14:17.914Z,9.47
2018-12-12T04:20:22.585Z,9.03
2018-12-12T04:26:27.350Z,8.43
2018-12-12T04:32:32.051Z,8.83
2018-12-12T04:38:36.794Z,9.23
2018-12-12T04:44:41.653Z,9.70
2018-12-12T04:50:46.505Z,9.27
2018-12-12T04:56:51.204Z,9.23
2018-12-12T05:02:56.737Z,9.33
2018-12-12T05:09:01.414Z,9.13
2018-12-12T05:15:06.884Z,8.57
2018-12-12T05:21:11.761Z,9.63
2018-12-12T05:27:16.774Z,10.27
2018-12-12T05:33:21.554Z,10.27
2018-12-12T05:39:27.000Z,10.27
2018-12-12T05:45:31.706Z,10.67
2018-12-12T05:51:36.425Z,11.27
2018-12-12T05:57:41.386Z,10.73
2018-12-12T06:03:46.039Z,9.03
2018-12-12T06:09:51.128Z,10.13
2018-12-12T06:15:55.887Z,9.47
2018-12-12T06:22:00.771Z,9.23
2018-12-12T06:28:05.423Z,9.77
2018-12-12T06:34:10.165Z,11.70
2018-12-12T06:40:14.857Z,11.83
2018-12-12T06:46:19.558Z,12.80
2018-12-12T06:52:24.278Z,12.90
2018-12-12T06:58:29.191Z,15.47
2018-12-12T07:04:34.194Z,14.60
2018-12-12T07:10:38.889Z,11.60
2018-12-12T07:16:43.903Z,11.40
2018-12-12T07:22:49.002Z,11.63
2018-12-12T07:28:54.182Z,12.63
2018-12-12T07:34:59.357Z,12.37
2018-12-12T07:41:04.325Z,13.47
2018-12-12T07:47:09.513Z,11.77
2018-12-12T07:53:14.197Z,11.07
2018-12-12T07:59:18.981Z,10.67
2018-12-12T08:05:23.718Z,13.13
2018-12-12T08:11:28.489Z,13.53
2018-12-12T08:17:33.313Z,15.10
2018-12-12T08:23:38.382Z,14.73
2018-12-12T08:29:43.220Z,12.63
2018-12-12T08:35:47.999Z,13.83
2018-12-12T08:41:52.773Z,13.13
2018-12-12T08:47:57.614Z,11.53
2018-12-12T08:54:02.412Z,12.67
2018-12-12T09:00:07.810Z,15.00
2018-12-12T09:06:12.632Z,14.93
2018-12-12T09:12:17.313Z,14.50
2018-12-12T09:18:21.980Z,14.87
2018-12-12T09:24:28.042Z,15.30
2018-12-12T09:30:32.940Z,16.20
2018-12-12T09:36:37.659Z,15.67
2018-12-12T09:42:42.579Z,15.70
2018-12-12T09:48:49.463Z,15.23
2018-12-12T09:54:54.231Z,15.57
2018-12-12T10:00:58.991Z,14.43
2018-12-12T10:07:03.961Z,15.70
2018-12-12T10:13:09.202Z,15.57
2018-12-12T10:19:13.979Z,15.47
2018-12-12T10:25:18.798Z,15.03
2018-12-12T10:31:23.844Z,17.50
2018-12-12T10:37:28.546Z,14.53
2018-12-12T10:43:33.251Z,15.00
2018-12-12T10:49:38.045Z,14.93
2018-12-12T10:55:42.968Z,15.53
2018-12-12T11:01:47.716Z,14.03
2018-12-12T11:07:52.471Z,14.03
2018-12-12T11:13:57.428Z,14.10
2018-12-12T11:20:02.265Z,13.80
2018-12-12T11:26:06.961Z,13.23
2018-12-12T11:32:12.577Z,13.10
2018-12-12T11:38:17.661Z,13.53
2018-12-12T11:44:22.381Z,12.70
2018-12-12T11:50:27.240Z,13.40
2018-12-12T11:56:32.579Z,12.10
2018-12-12T12:02:37.522Z,12.03
2018-12-12T12:08:42.239Z,13.67
2018-12-12T12:14:47.065Z,10.77
2018-12-12T12:20:52.049Z,9.40
2018-12-12T12:26:56.948Z,10.23
2018-12-12T12:33:01.614Z,10.13
2018-12-12T12:39:09.061Z,10.10
2018-12-12T12:45:14.332Z,10.57
2018-12-12T12:51:19.156Z,12.00
2018-12-12T12:57:23.991Z,12.00
2018-12-12T13:03:28.828Z,12.57
2018-12-12T13:09:33.922Z,13.23
2018-12-12T13:15:39.219Z,15.07
2018-12-12T13:21:52.931Z,16.27
2018-12-12T13:27:57.672Z,15.90
2018-12-12T13:34:02.480Z,17.03
2018-12-12T13:40:08.297Z,16.70
2018-12-12T13:46:13.460Z,16.40
2018-12-12T13:52:18.181Z,17.10
2018-12-12T13:58:23.126Z,19.13
2018-12-12T14:04:28.052Z,18.50
2018-12-12T14:10:32.862Z,19.27
2018-12-12T14:16:37.630Z,21.03
2018-12-12T14:22:42.423Z,19.30
2018-12-12T14:28:47.237Z,18.77
2018-12-12T14:35:03.857Z,19.87
2018-12-12T14:41:29.169Z,20.17
2018-12-12T14:47:33.920Z,19.83
2018-12-12T14:53:39.073Z,20.67
2018-12-12T14:59:43.804Z,19.87
2018-12-12T15:05:49.304Z,19.27
2018-12-12T15:11:54.080Z,20.37
2018-12-12T15:17:59.006Z,20.63
2018-12-12T15:24:03.934Z,22.27
2018-12-12T15:30:08.965Z,19.90
2018-12-12T15:36:13.694Z,21.03
2018-12-12T15:42:18.636Z,19.33
2018-12-12T15:48:23.490Z,20.17
2018-12-12T15:54:28.320Z,19.93
2018-12-12T16:00:33.378Z,19.77
2018-12-12T16:06:38.205Z,21.53
2018-12-12T16:12:42.967Z,21.43
2018-12-12T16:18:47.677Z,20.30
2018-12-12T16:24:52.476Z,21.33
2018-12-12T16:30:57.272Z,24.00
2018-12-12T16:37:02.053Z,21.20
2018-12-12T16:43:06.829Z,20.27
2018-12-12T16:49:11.572Z,20.77
2018-12-12T16:55:16.289Z,19.40
2018-12-12T17:01:21.142Z,20.33
2018-12-12T17:07:25.892Z,19.10
2018-12-12T17:13:30.590Z,16.47
2018-12-12T17:19:35.471Z,15.53
2018-12-12T17:25:40.269Z,16.77
2018-12-12T17:31:45.173Z,17.57
2018-12-12T17:37:50.176Z,17.13
2018-12-12T17:43:55.451Z,15.10
2018-12-12T17:50:00.126Z,14.93
2018-12-12T17:56:05.076Z,14.07
2018-12-12T18:02:09.959Z,15.33
2018-12-12T18:08:14.649Z,14.47
2018-12-12T18:14:19.974Z,14.80
2018-12-12T18:20:24.823Z,15.73
2018-12-12T18:26:29.745Z,14.50
2018-12-12T18:32:34.631Z,14.50
2018-12-12T18:38:39.379Z,15.13
2018-12-12T18:44:44.129Z,13.90
2018-12-12T18:50:48.877Z,15.50
2018-12-12T18:56:53.645Z,16.30
2018-12-12T19:02:58.872Z,16.13
2018-12-12T19:09:04.416Z,17.13
2018-12-12T19:15:10.132Z,16.30
2018-12-12T19:21:15.706Z,16.57
2018-12-12T19:27:20.434Z,14.33
2018-12-12T19:33:25.541Z,14.17
2018-12-12T19:39:30.323Z,15.83
2018-12-12T19:45:35.244Z,15.50
2018-12-12T19:51:39.972Z,16.20
2018-12-12T19:57:44.994Z,15.80
2018-12-12T20:03:49.755Z,15.60
2018-12-12T20:09:54.696Z,15.37
2018-12-12T20:15:59.411Z,15.80
2018-12-12T20:22:04.356Z,16.27
2018-12-12T20:28:09.555Z,18.17
2018-12-12T20:34:14.790Z,21.10
2018-12-12T20:40:19.659Z,14.63
2018-12-12T20:46:24.773Z,14.37
2018-12-12T20:52:29.675Z,14.80
2018-12-12T20:58:34.557Z,15.67
2018-12-12T21:04:39.517Z,15.50
2018-12-12T21:10:44.695Z,16.00
2018-12-12T21:16:49.520Z,16.13
2018-12-12T21:22:56.276Z,16.33
2018-12-12T21:29:01.190Z,15.70
2018-12-12T21:35:07.582Z,14.90
2018-12-12T21:41:12.590Z,14.97
2018-12-12T21:47:17.637Z,13.80
2018-12-12T21:53:22.615Z,13.93
2018-12-12T21:59:27.542Z,14.97
2018-12-12T22:05:32.489Z,14.23
2018-12-12T22:11:37.328Z,14.43
2018-12-12T22:17:42.154Z,15.23
2018-12-12T22:23:47.311Z,14.50
2018-12-12T22:29:52.220Z,15.63
2018-12-12T22:35:57.059Z,15.27
2018-12-12T22:42:01.783Z,14.80
2018-12-12T22:48:06.810Z,15.77
2018-12-12T22:54:11.574Z,15.00
2018-12-12T23:00:21.567Z,14.93
2018-12-12T23:06:26.458Z,16.13
2018-12-12T23:12:31.196Z,14.93
2018-12-12T23:18:36.025Z,15.10
2018-12-12T23:24:40.785Z,14.53
2018-12-12T23:30:45.659Z,16.30
2018-12-12T23:36:50.560Z,15.07
2018-12-12T23:42:55.418Z,15.80
2018-12-12T23:49:00.532Z,15.77
2018-12-12T23:55:05.573Z,15.13
